Terminal Aerodrome Forecast
Issued by NWS

Home | Current Version | Previous Version | Text Only | Print | Product List | Glossary On
Versions: 1 2 3 4 5 6 7 8 9 10 11 12 13 14 15 16 17 18 19
000
FTUS44 KTSA 190500
TAFFYV
TAF
KFYV 190537Z 1906/2006 00000KT 5SM BR OVC007
     FM190900 00000KT 3SM BR OVC004
     FM191600 03004KT 6SM BR OVC007
     FM192100 VRB03KT P6SM OVC010=

USA.gov is the U.S. government's official web portal to all federal, state and local government web resources and services.